Time;durP1;ratioP1;P1;durP2;ratioP2;P2;SDS_P1;SDS_P2;PMS_P1;PMS_P2;Temp;Humidity;BMP_temperature;BMP_pressure;BME280_temperature;BME280_humidity;BME280_pressure;Samples;Min_cycle;Max_cycle;Signal;HPM_P1;HPM_P2
2023/06/05 00:00:53;;;;;;;5.03;2.70;;;;;;;23.07;44.47;100562.56;5095298;28;20046;-67
2023/06/05 00:03:21;;;;;;;6.43;2.83;;;;;;;23.05;44.50;100559.13;5095215;28;20055;-67
2023/06/05 00:05:49;;;;;;;6.07;2.80;;;;;;;23.05;44.48;100561.84;5095068;28;20130;-68
2023/06/05 00:08:18;;;;;;;5.05;2.35;;;;;;;23.04;44.59;100560.16;5094814;28;20459;-69
2023/06/05 00:10:46;;;;;;;4.38;2.65;;;;;;;23.04;44.54;100568.31;5094882;28;20171;-69
2023/06/05 00:13:15;;;;;;;4.05;2.63;;;;;;;23.03;44.56;100559.28;5094964;28;20077;-69
2023/06/05 00:15:47;;;;;;;4.80;3.00;;;;;;;23.02;44.60;100554.03;5094833;28;20044;-69
2023/06/05 00:18:15;;;;;;;5.28;2.88;;;;;;;23.02;44.62;100554.03;5095060;28;20051;-70
2023/06/05 00:20:43;;;;;;;4.72;2.70;;;;;;;23.00;44.70;100550.63;5094811;28;20109;-69
2023/06/05 00:23:12;;;;;;;4.70;2.47;;;;;;;22.99;44.79;100551.66;5094715;28;20051;-69
2023/06/05 00:25:40;;;;;;;4.72;2.60;;;;;;;22.99;44.69;100549.78;5094505;28;20060;-69
2023/06/05 00:28:09;;;;;;;5.22;2.90;;;;;;;22.99;44.71;100548.94;5094879;28;20040;-69
2023/06/05 00:30:37;;;;;;;4.93;2.83;;;;;;;22.98;44.97;100547.22;5094665;28;20131;-69
2023/06/05 00:33:07;;;;;;;4.55;2.90;;;;;;;22.97;44.71;100545.50;5094567;28;20040;-69
2023/06/05 00:35:35;;;;;;;4.18;2.58;;;;;;;22.97;44.97;100550.94;5094606;28;20410;-69
2023/06/05 00:38:03;;;;;;;4.57;2.58;;;;;;;22.96;44.96;100546.50;5094182;28;20048;-69
2023/06/05 00:40:32;;;;;;;4.20;2.45;;;;;;;22.95;44.98;100542.09;5094375;28;20048;-69
2023/06/05 00:43:00;;;;;;;4.45;2.70;;;;;;;22.95;44.92;100542.94;5094184;28;20052;-69
2023/06/05 00:45:28;;;;;;;5.15;2.53;;;;;;;22.96;44.84;100549.25;5094495;28;20181;-69
2023/06/05 00:47:56;;;;;;;3.88;2.30;;;;;;;22.96;45.01;100557.41;5094190;28;20044;-68
2023/06/05 00:50:26;;;;;;;4.18;2.40;;;;;;;22.93;44.92;100550.44;5094162;28;20048;-69
2023/06/05 00:52:55;;;;;;;4.32;2.35;;;;;;;22.94;44.99;100552.13;5093950;28;20055;-69
2023/06/05 00:55:23;;;;;;;4.75;2.63;;;;;;;22.92;45.16;100548.72;5094246;28;20051;-69
2023/06/05 00:57:52;;;;;;;6.03;2.92;;;;;;;22.93;44.92;100549.56;5094308;28;20040;-68
2023/06/05 01:00:20;;;;;;;4.93;2.58;;;;;;;22.92;45.08;100545.16;5094026;28;20101;-69
2023/06/05 01:02:53;;;;;;;6.70;2.75;;;;;;;22.91;45.13;100546.19;5093912;28;20515;-69
2023/06/05 01:05:21;;;;;;;5.00;2.85;;;;;;;22.90;45.22;100549.91;5093690;28;20589;-69
2023/06/05 01:07:51;;;;;;;4.47;2.40;;;;;;;22.90;45.18;100544.47;5092691;28;20079;-68
2023/06/05 01:10:20;;;;;;;4.38;2.42;;;;;;;22.90;45.17;100544.47;5092991;28;20052;-68
2023/06/05 01:12:58;;;;;;;6.20;2.45;;;;;;;22.89;45.06;100543.63;5093702;28;20066;-68
2023/06/05 01:15:29;;;;;;;4.03;2.30;;;;;;;22.89;45.02;100540.06;5093667;28;20044;-68
2023/06/05 01:17:59;;;;;;;5.50;2.63;;;;;;;22.88;45.33;100543.78;5093642;28;20048;-68
2023/06/05 01:20:34;;;;;;;5.05;2.35;;;;;;;22.88;45.11;100541.06;5093455;28;20044;-68
2023/06/05 01:23:04;;;;;;;4.60;2.80;;;;;;;22.87;45.28;100539.34;5093535;28;20552;-69
2023/06/05 01:25:34;;;;;;;4.55;2.63;;;;;;;22.87;45.40;100544.78;5092452;28;20048;-68
2023/06/05 01:28:11;;;;;;;4.28;2.45;;;;;;;22.86;45.24;100549.38;5093466;28;20044;-69
2023/06/05 01:30:52;;;;;;;5.45;2.70;;;;;;;22.84;45.24;100538.66;5093291;28;20052;-68
2023/06/05 01:33:30;;;;;;;4.40;2.45;;;;;;;22.83;45.46;100539.66;5093500;28;20055;-68
2023/06/05 01:36:04;;;;;;;4.65;2.35;;;;;;;22.82;45.34;100540.66;5093156;28;20561;-68
2023/06/05 01:38:35;;;;;;;4.72;2.80;;;;;;;22.82;45.37;100543.38;5090423;28;20048;-68
2023/06/05 01:41:05;;;;;;;4.68;2.67;;;;;;;22.82;45.41;100537.09;5082157;28;20127;-68
2023/06/05 01:43:35;;;;;;;5.18;2.95;;;;;;;22.81;45.40;100538.97;5093297;28;20120;-68
2023/06/05 01:46:03;;;;;;;5.30;2.70;;;;;;;22.81;45.49;100540.84;5091285;28;20052;-68
2023/06/05 01:48:32;;;;;;;4.50;2.47;;;;;;;22.81;45.57;100538.97;5073029;28;20059;-69
2023/06/05 01:51:01;;;;;;;3.80;1.98;;;;;;;22.79;45.43;100535.56;5072746;28;20378;-68
2023/06/05 01:53:30;;;;;;;4.35;2.60;;;;;;;22.78;45.46;100531.16;5072784;28;20064;-69
2023/06/05 01:56:00;;;;;;;4.90;2.70;;;;;;;22.78;45.49;100536.59;5072896;28;20103;-68
2023/06/05 01:58:28;;;;;;;4.20;2.53;;;;;;;22.78;45.71;100536.59;5072869;28;20057;-68
2023/06/05 02:00:57;;;;;;;5.18;2.53;;;;;;;22.77;45.59;100532.13;5072692;28;20056;-68
2023/06/05 02:03:26;;;;;;;3.67;2.20;;;;;;;22.77;45.50;100526.69;5072409;28;20053;-69
2023/06/05 02:05:55;;;;;;;4.55;2.70;;;;;;;22.76;45.52;100527.72;5091061;28;20134;-68
2023/06/05 02:08:25;;;;;;;5.05;2.67;;;;;;;22.76;45.60;100530.44;5092419;28;20058;-68
2023/06/05 02:10:54;;;;;;;4.20;2.33;;;;;;;22.76;45.44;100533.16;5092786;28;20098;-68
2023/06/05 02:13:24;;;;;;;5.28;2.53;;;;;;;22.75;45.82;100534.19;5092622;28;20050;-68
2023/06/05 02:15:56;;;;;;;5.15;2.50;;;;;;;22.75;45.46;100530.59;5092687;28;20040;-68
2023/06/05 02:18:25;;;;;;;5.75;2.80;;;;;;;22.74;45.58;100524.31;5092489;28;20083;-68
2023/06/05 02:20:56;;;;;;;3.75;2.47;;;;;;;22.74;45.66;100528.91;5092362;28;20397;-68
2023/06/05 02:23:24;;;;;;;4.20;2.60;;;;;;;22.74;45.55;100523.47;5092390;28;20077;-68
2023/06/05 02:25:52;;;;;;;4.32;2.70;;;;;;;22.72;45.83;100526.34;5092245;28;20065;-68
2023/06/05 02:28:21;;;;;;;4.50;2.50;;;;;;;22.72;45.74;100526.34;5092274;28;20048;-68
2023/06/05 02:30:50;;;;;;;4.25;2.47;;;;;;;22.72;45.69;100526.34;5092417;28;20047;-68
2023/06/05 02:33:19;;;;;;;5.38;2.72;;;;;;;22.71;45.65;100540.97;5092306;28;20040;-68
2023/06/05 02:35:47;;;;;;;4.43;2.50;;;;;;;22.71;45.77;100530.09;5092330;28;20047;-68
2023/06/05 02:38:15;;;;;;;4.40;2.60;;;;;;;22.69;45.63;100526.69;5092038;28;20048;-68
2023/06/05 02:40:43;;;;;;;4.03;2.53;;;;;;;22.69;45.66;100526.69;5091956;28;20040;-69
2023/06/05 02:43:11;;;;;;;4.70;2.70;;;;;;;22.69;45.71;100532.13;5091892;28;20405;-68
2023/06/05 02:45:42;;;;;;;5.13;2.58;;;;;;;22.69;45.66;100534.84;5092035;28;20052;-69
2023/06/05 02:48:12;;;;;;;4.78;2.63;;;;;;;22.68;46.08;100530.44;5092157;28;20084;-68
2023/06/05 02:50:40;;;;;;;4.00;2.40;;;;;;;22.67;45.80;100528.69;5092088;28;20052;-68
2023/06/05 02:53:08;;;;;;;4.25;2.60;;;;;;;22.65;46.07;100536.19;5091633;28;20048;-70
2023/06/05 02:55:37;;;;;;;4.15;2.45;;;;;;;22.66;46.15;100531.59;5091927;28;20044;-68
2023/06/05 02:58:05;;;;;;;5.18;2.80;;;;;;;22.65;45.96;100530.72;5091514;28;20048;-68
2023/06/05 03:00:33;;;;;;;4.45;2.60;;;;;;;22.65;45.79;100533.47;5091547;28;20097;-68
2023/06/05 03:03:03;;;;;;;4.65;2.28;;;;;;;22.64;45.83;100529.03;5091860;28;20044;-68
2023/06/05 03:05:33;;;;;;;4.43;2.80;;;;;;;22.65;45.99;100529.88;5091592;28;20621;-68
2023/06/05 03:08:03;;;;;;;6.43;2.65;;;;;;;22.64;45.95;100526.31;5091440;28;20056;-68
2023/06/05 03:10:31;;;;;;;4.57;2.55;;;;;;;22.63;46.18;100524.63;5091622;28;20047;-68
2023/06/05 03:12:59;;;;;;;5.45;2.75;;;;;;;22.63;45.83;100527.34;5091514;28;20097;-68
2023/06/05 03:15:29;;;;;;;4.35;2.55;;;;;;;22.64;46.09;100523.59;5091757;28;20048;-68
2023/06/05 03:17:58;;;;;;;4.00;2.42;;;;;;;22.62;45.83;100522.91;5091530;28;20504;-68
2023/06/05 03:20:26;;;;;;;4.38;2.30;;;;;;;22.63;46.01;100521.91;5091550;28;20048;-69
2023/06/05 03:22:56;;;;;;;4.32;2.67;;;;;;;22.63;45.76;100527.34;5091384;28;20054;-69
2023/06/05 03:25:24;;;;;;;4.70;2.60;;;;;;;22.63;46.00;100521.91;5091373;28;20561;-69
2023/06/05 03:27:53;;;;;;;5.22;2.75;;;;;;;22.63;46.02;100516.47;5091270;28;20048;-69
2023/06/05 03:30:24;;;;;;;4.97;2.30;;;;;;;22.63;45.82;100521.91;5091601;28;20131;-69
2023/06/05 03:32:52;;;;;;;5.28;2.70;;;;;;;22.61;45.92;100518.50;5091383;28;20094;-69
2023/06/05 03:35:20;;;;;;;5.82;2.80;;;;;;;22.62;46.01;100524.78;5090875;28;20123;-68
2023/06/05 03:37:48;;;;;;;4.38;2.65;;;;;;;22.62;46.08;100514.75;5091164;28;20135;-69
2023/06/05 03:40:18;;;;;;;5.47;2.53;;;;;;;22.62;46.07;100522.91;5091505;28;20047;-69
2023/06/05 03:42:46;;;;;;;5.22;2.92;;;;;;;22.61;46.23;100513.06;5091282;28;20059;-66
2023/06/05 03:45:15;;;;;;;4.95;2.95;;;;;;;22.61;46.37;100523.09;5091382;28;20054;-69
2023/06/05 03:47:44;;;;;;;4.22;2.67;;;;;;;22.61;45.95;100531.25;5091375;28;20048;-69
2023/06/05 03:50:13;;;;;;;3.88;2.67;;;;;;;22.61;45.89;100531.25;5090902;28;20052;-68
2023/06/05 03:52:41;;;;;;;4.68;2.55;;;;;;;22.60;46.06;100538.56;5090966;28;20063;-69
2023/06/05 03:55:10;;;;;;;6.95;2.60;;;;;;;22.58;46.29;100535.13;5091157;28;20519;-68
2023/06/05 03:57:40;;;;;;;5.10;2.55;;;;;;;22.59;46.13;100536.84;5091137;28;20083;-68
2023/06/05 04:00:10;;;;;;;6.10;3.70;;;;;;;22.59;46.40;100546.88;5091127;28;20405;-67
2023/06/05 04:02:38;;;;;;;6.57;4.13;;;;;;;22.58;46.15;100548.72;5090976;28;20093;-68
2023/06/05 04:05:11;;;;;;;7.03;3.50;;;;;;;22.59;46.32;100545.00;5090932;28;20048;-68
2023/06/05 04:07:39;;;;;;;4.60;3.00;;;;;;;22.60;46.13;100540.41;5091011;28;20121;-68
2023/06/05 04:10:08;;;;;;;6.50;3.33;;;;;;;22.59;46.17;100546.88;5091141;28;20075;-68
2023/06/05 04:12:36;;;;;;;5.38;3.05;;;;;;;22.58;46.15;100540.56;5090849;28;20040;-68
2023/06/05 04:15:09;;;;;;;6.20;2.72;;;;;;;22.60;46.10;100548.56;5090970;28;20044;-68
2023/06/05 04:17:38;;;;;;;4.43;2.78;;;;;;;22.60;45.96;100543.13;5090822;28;20047;-68
2023/06/05 04:20:10;;;;;;;5.75;2.58;;;;;;;22.59;46.07;100541.44;5090939;28;20098;-68
2023/06/05 04:22:38;;;;;;;4.82;2.78;;;;;;;22.60;46.12;100546.72;5091041;28;20055;-68
2023/06/05 04:25:08;;;;;;;4.90;2.97;;;;;;;22.60;46.21;100546.72;5090892;28;20052;-68
2023/06/05 04:27:36;;;;;;;4.57;3.00;;;;;;;22.61;46.26;100544.84;5090834;28;20052;-68
2023/06/05 04:30:07;;;;;;;4.60;3.00;;;;;;;22.61;46.12;100537.53;5090651;28;20412;-68
2023/06/05 04:32:37;;;;;;;5.50;2.80;;;;;;;22.61;46.34;100540.25;5070391;28;20052;-68
2023/06/05 04:35:06;;;;;;;4.93;2.80;;;;;;;22.62;46.26;100535.66;5070748;28;20044;-67
2023/06/05 04:37:34;;;;;;;4.65;2.60;;;;;;;22.61;46.18;100545.69;5070574;28;20040;-67
2023/06/05 04:40:05;;;;;;;5.65;2.83;;;;;;;22.62;46.21;100541.09;5070401;28;20467;-67
2023/06/05 04:42:34;;;;;;;4.32;2.75;;;;;;;22.61;46.25;100545.69;5086869;28;20059;-67
2023/06/05 04:45:04;;;;;;;3.95;2.60;;;;;;;22.62;46.24;100547.38;5090309;28;20048;-67
2023/06/05 04:47:34;;;;;;;5.05;2.92;;;;;;;22.61;46.43;100540.25;5093593;28;20387;-68
2023/06/05 04:50:04;;;;;;;4.20;2.50;;;;;;;22.63;46.46;100542.78;5094098;28;20055;-68
2023/06/05 04:52:34;;;;;;;4.80;2.97;;;;;;;22.63;46.43;100548.25;5073967;28;20097;-68
2023/06/05 04:55:03;;;;;;;6.10;2.58;;;;;;;22.63;46.46;100549.09;5073933;28;20052;-68
2023/06/05 04:57:31;;;;;;;5.80;2.97;;;;;;;22.63;46.28;100546.38;5073586;28;20553;-67
2023/06/05 05:00:00;;;;;;;4.30;2.65;;;;;;;22.65;46.35;100546.19;5073937;28;20055;-68
2023/06/05 05:02:28;;;;;;;5.93;2.90;;;;;;;22.65;46.16;100547.06;5093388;28;20410;-69
2023/06/05 05:04:57;;;;;;;4.38;2.70;;;;;;;22.65;46.19;100547.06;5093768;28;20429;-68
2023/06/05 05:07:26;;;;;;;4.47;2.72;;;;;;;22.66;46.37;100543.31;5093438;28;20064;-68
2023/06/05 05:09:54;;;;;;;5.10;2.70;;;;;;;22.67;46.18;100550.44;5093289;28;20101;-68
2023/06/05 05:12:22;;;;;;;4.32;2.58;;;;;;;22.68;46.21;100548.59;5093464;28;20105;-68
2023/06/05 05:14:51;;;;;;;4.63;2.58;;;;;;;22.68;46.45;100544.03;5093698;28;20066;-68
2023/06/05 05:17:20;;;;;;;5.47;2.63;;;;;;;22.68;46.24;100552.19;5093424;28;20131;-69
2023/06/05 05:19:48;;;;;;;5.78;2.85;;;;;;;22.69;46.26;100543.00;5093286;28;20048;-67
2023/06/05 05:22:18;;;;;;;5.50;2.50;;;;;;;22.69;46.15;100548.44;5093177;28;20540;-68
2023/06/05 05:24:46;;;;;;;3.90;2.47;;;;;;;22.71;46.41;100551.00;5093105;28;20055;-68
2023/06/05 05:27:15;;;;;;;4.22;2.83;;;;;;;22.71;46.05;100546.41;5093267;28;20052;-68
2023/06/05 05:29:43;;;;;;;4.80;2.70;;;;;;;22.72;46.34;100545.38;5093129;28;20052;-67
2023/06/05 05:32:11;;;;;;;4.10;2.53;;;;;;;22.73;46.10;100549.81;5092808;28;20423;-68
2023/06/05 05:34:40;;;;;;;5.32;2.60;;;;;;;22.73;46.30;100543.53;5085693;28;20483;-67
2023/06/05 05:37:08;;;;;;;4.78;2.70;;;;;;;22.74;46.21;100546.06;5090210;28;20041;-68
2023/06/05 05:39:38;;;;;;;6.63;2.85;;;;;;;22.76;46.29;100548.63;5092546;28;20122;-67
2023/06/05 05:42:06;;;;;;;4.93;2.90;;;;;;;22.76;46.69;100544.03;5088538;28;20039;-67
2023/06/05 05:44:35;;;;;;;6.90;2.47;;;;;;;22.78;46.99;100542.03;5090922;28;20113;-67
2023/06/05 05:47:04;;;;;;;5.47;2.85;;;;;;;22.80;47.60;100556.31;5091743;28;20044;-67
2023/06/05 05:49:32;;;;;;;4.60;2.60;;;;;;;22.81;47.80;100552.56;5089961;28;20119;-67
2023/06/05 05:52:01;;;;;;;7.72;2.80;;;;;;;22.81;47.64;100560.72;5091725;28;20112;-67
2023/06/05 05:54:29;;;;;;;5.22;2.60;;;;;;;22.81;47.57;100558.00;5092654;28;20109;-67
2023/06/05 05:56:58;;;;;;;5.43;2.90;;;;;;;22.83;47.78;100560.56;5092265;28;20036;-67
2023/06/05 05:59:27;;;;;;;4.93;2.78;;;;;;;22.82;47.92;100556.13;5092259;28;20040;-66
2023/06/05 06:01:58;;;;;;;5.25;2.65;;;;;;;22.82;47.78;100565.16;5090026;28;20052;-67
2023/06/05 06:04:26;;;;;;;5.80;2.75;;;;;;;22.83;47.96;100561.41;5092447;28;20151;-66
2023/06/05 06:06:56;;;;;;;5.95;2.42;;;;;;;22.83;47.93;100564.13;5092557;28;20051;-67
2023/06/05 06:09:24;;;;;;;5.15;2.70;;;;;;;22.84;47.82;100563.13;5091781;28;20094;-66
2023/06/05 06:11:55;;;;;;;4.38;2.50;;;;;;;22.86;47.83;100560.25;5091892;28;20139;-67
2023/06/05 06:14:25;;;;;;;4.57;2.70;;;;;;;22.87;47.78;100552.94;5091878;28;20504;-66
2023/06/05 06:16:55;;;;;;;5.45;3.00;;;;;;;22.88;47.66;100551.94;5091703;28;20074;-66
2023/06/05 06:19:24;;;;;;;5.32;2.60;;;;;;;22.89;47.69;100553.66;5092188;28;20079;-66
2023/06/05 06:21:52;;;;;;;5.45;2.58;;;;;;;22.90;47.73;100555.34;5092085;28;20047;-66
2023/06/05 06:24:21;;;;;;;5.72;2.58;;;;;;;22.92;47.99;100561.47;5092113;28;20554;-67
2023/06/05 06:26:52;;;;;;;7.63;2.97;;;;;;;22.92;47.68;100550.59;5092473;28;20058;-66
2023/06/05 06:29:20;;;;;;;7.00;2.70;;;;;;;22.93;47.64;100545.00;5094183;28;20546;-66
2023/06/05 06:31:50;;;;;;;7.25;2.70;;;;;;;22.94;47.78;100545.84;5112363;28;20051;-67
2023/06/05 06:34:19;;;;;;;5.10;2.80;;;;;;;22.95;47.60;100542.09;5112428;28;20105;-67
2023/06/05 06:36:47;;;;;;;5.13;2.75;;;;;;;22.96;47.51;100549.25;5098728;28;20516;-67
2023/06/05 06:39:15;;;;;;;7.65;2.90;;;;;;;22.97;47.71;100546.38;5080424;28;20052;-66
2023/06/05 06:41:44;;;;;;;9.07;3.53;;;;;;;22.97;47.78;100543.66;5071288;28;20504;-63
2023/06/05 06:44:12;;;;;;;11.52;4.35;;;;;;;22.97;47.78;100540.94;5071386;28;20048;-67
2023/06/05 06:46:40;;;;;;;13.88;5.32;;;;;;;22.99;47.62;100546.22;5071738;28;20052;-68
2023/06/05 06:49:10;;;;;;;14.20;5.20;;;;;;;22.99;47.77;100538.91;5071572;28;20044;-63
2023/06/05 06:51:38;;;;;;;21.33;6.28;;;;;;;22.99;47.63;100532.59;5071503;28;20048;-64
2023/06/05 06:54:06;;;;;;;19.85;6.32;;;;;;;23.01;47.62;100538.72;5071436;28;20432;-63
2023/06/05 06:56:34;;;;;;;18.27;5.70;;;;;;;23.01;47.78;100533.28;5071293;28;20052;-66
2023/06/05 06:59:10;;;;;;;16.20;6.35;;;;;;;23.03;47.72;100536.69;5070774;28;20044;-65
2023/06/05 07:01:44;;;;;;;19.10;6.65;;;;;;;23.03;47.91;100539.41;5071380;28;20090;-66
2023/06/05 07:04:16;;;;;;;17.15;6.28;;;;;;;23.04;47.58;100535.66;5071385;28;20409;-62
2023/06/05 07:06:45;;;;;;;16.63;6.25;;;;;;;23.04;47.65;100535.66;5071204;28;20071;-63
2023/06/05 07:09:13;;;;;;;16.98;6.22;;;;;;;23.05;47.74;100535.50;5070250;28;20052;-64
2023/06/05 07:11:41;;;;;;;19.27;6.38;;;;;;;23.05;47.79;100542.81;5071282;28;20063;-65
2023/06/05 07:14:09;;;;;;;14.60;5.97;;;;;;;23.06;47.70;100539.06;5071093;28;20336;-65
2023/06/05 07:16:38;;;;;;;15.75;6.15;;;;;;;23.07;47.43;100536.19;5071287;28;20756;-63
2023/06/05 07:19:06;;;;;;;12.80;5.75;;;;;;;23.07;47.61;100535.34;5080278;28;20083;-64
2023/06/05 07:21:37;;;;;;;14.23;5.93;;;;;;;23.08;47.53;100537.06;5090747;28;20676;-65
2023/06/05 07:24:07;;;;;;;13.77;5.63;;;;;;;23.08;47.47;100542.50;5091440;28;20040;-66
2023/06/05 07:26:36;;;;;;;14.70;5.25;;;;;;;23.09;47.33;100545.03;5090878;28;20063;-67
2023/06/05 07:29:04;;;;;;;15.55;5.43;;;;;;;23.10;47.66;100543.16;5090140;28;20146;-65
2023/06/05 07:31:32;;;;;;;13.45;5.32;;;;;;;23.10;47.22;100548.63;5109534;28;20040;-67
2023/06/05 07:34:00;;;;;;;14.98;5.28;;;;;;;23.11;47.45;100547.59;5111507;28;20051;-68
2023/06/05 07:36:30;;;;;;;12.95;5.95;;;;;;;23.11;47.10;100550.31;5109992;28;20044;-68
2023/06/05 07:38:59;;;;;;;13.35;5.40;;;;;;;23.12;47.25;100550.16;5109816;28;20331;-68
2023/06/05 07:41:28;;;;;;;13.57;5.63;;;;;;;23.12;47.50;100550.16;5111215;28;20390;-68
2023/06/05 07:43:56;;;;;;;12.70;5.15;;;;;;;23.12;47.16;100552.88;5111293;28;20075;-68
2023/06/05 07:46:24;;;;;;;12.75;5.20;;;;;;;23.14;47.61;100552.69;5111607;28;20376;-68
2023/06/05 07:48:52;;;;;;;11.95;4.70;;;;;;;23.13;47.45;100551.84;5111132;28;20138;-68
2023/06/05 07:51:20;;;;;;;12.10;5.15;;;;;;;23.13;47.17;100551.00;5111200;28;20096;-67
2023/06/05 07:53:49;;;;;;;12.57;5.25;;;;;;;23.13;47.01;100551.84;5111134;28;20054;-67
2023/06/05 07:56:18;;;;;;;12.80;5.15;;;;;;;23.14;47.03;100547.25;5111123;28;20044;-67
2023/06/05 07:58:47;;;;;;;10.75;4.80;;;;;;;23.13;46.88;100553.72;5111257;28;20044;-67
2023/06/05 08:01:15;;;;;;;12.52;4.95;;;;;;;23.15;47.21;100554.41;5111462;28;20322;-69
2023/06/05 08:03:44;;;;;;;12.70;5.22;;;;;;;23.14;47.10;100545.38;5111130;28;20506;-68
2023/06/05 08:06:12;;;;;;;10.07;4.68;;;;;;;23.15;47.32;100551.66;5111110;28;20425;-67
2023/06/05 08:08:40;;;;;;;9.48;4.63;;;;;;;23.16;47.22;100555.25;5110898;28;20085;-68
2023/06/05 08:11:08;;;;;;;10.60;4.95;;;;;;;23.16;47.04;100549.81;5111163;28;20096;-67
2023/06/05 08:13:40;;;;;;;11.10;4.65;;;;;;;23.17;47.29;100557.81;5111030;28;20093;-67
2023/06/05 08:16:08;;;;;;;9.57;4.78;;;;;;;23.17;46.99;100546.09;5110893;28;20043;-67
2023/06/05 08:18:36;;;;;;;14.35;4.68;;;;;;;23.17;47.02;100546.09;5110753;28;20496;-67
2023/06/05 08:21:06;;;;;;;10.25;4.72;;;;;;;23.18;47.10;100551.38;5113895;28;20048;-67
2023/06/05 08:23:34;;;;;;;13.15;5.10;;;;;;;23.18;46.94;100554.09;5114899;28;20078;-68
2023/06/05 08:26:10;;;;;;;11.65;4.78;;;;;;;23.19;47.02;100552.22;5106077;28;20094;-67
2023/06/05 08:28:40;;;;;;;11.73;5.00;;;;;;;23.19;46.95;100550.34;5093605;28;20082;-66
2023/06/05 08:31:10;;;;;;;10.07;4.57;;;;;;;23.19;46.83;100550.34;5094275;28;20051;-66
2023/06/05 08:33:39;;;;;;;13.05;5.22;;;;;;;23.20;46.94;100545.75;5088098;28;20094;-68
2023/06/05 08:36:07;;;;;;;9.57;4.38;;;;;;;23.20;46.97;100553.91;5076720;28;20048;-67
2023/06/05 08:38:35;;;;;;;9.90;4.95;;;;;;;23.20;46.90;100552.03;5093285;28;20073;-67
2023/06/05 08:41:10;;;;;;;16.17;5.47;;;;;;;23.21;46.96;100558.34;5092869;28;20058;-66
2023/06/05 08:43:41;;;;;;;10.48;4.85;;;;;;;23.21;46.98;100553.75;5093575;28;20485;-67
2023/06/05 08:46:11;;;;;;;10.05;4.72;;;;;;;23.21;46.84;100553.75;5093555;28;20116;-66
2023/06/05 08:48:43;;;;;;;9.82;4.88;;;;;;;23.22;47.19;100555.44;5093452;28;20040;-67
2023/06/05 08:51:13;;;;;;;11.10;5.07;;;;;;;23.24;46.66;100561.56;5090926;28;20050;-68
2023/06/05 08:53:45;;;;;;;11.18;4.70;;;;;;;23.24;46.84;100553.41;5093941;28;20051;-68
2023/06/05 08:56:15;;;;;;;9.95;4.90;;;;;;;23.24;46.88;100558.84;5091114;28;20047;-67
2023/06/05 08:58:45;;;;;;;11.10;4.55;;;;;;;23.25;47.01;100552.38;5093550;28;20040;-68
2023/06/05 09:01:17;;;;;;;11.63;4.68;;;;;;;23.25;46.86;100555.09;5093498;28;20529;-70
2023/06/05 09:03:45;;;;;;;9.82;4.72;;;;;;;23.26;47.07;100545.94;5093163;28;20070;-68
2023/06/05 09:06:13;;;;;;;11.75;4.53;;;;;;;23.27;47.08;100553.09;5091032;28;20048;-67
2023/06/05 09:08:41;;;;;;;10.07;4.45;;;;;;;23.29;47.15;100552.91;5093289;28;20132;-66
2023/06/05 09:11:23;;;;;;;12.10;4.97;;;;;;;23.29;46.94;100551.03;5093501;28;20043;-67
2023/06/05 09:13:55;;;;;;;9.35;4.45;;;;;;;23.30;47.16;100543.72;5091597;28;20083;-67
2023/06/05 09:16:32;;;;;;;8.57;4.50;;;;;;;23.31;47.02;100543.56;5090229;28;20105;-69
2023/06/05 09:19:01;;;;;;;11.75;4.70;;;;;;;23.30;46.99;100536.41;5081853;28;20045;-64
2023/06/05 09:21:32;;;;;;;10.23;4.97;;;;;;;23.29;47.26;100540.16;5073257;28;20060;-66
2023/06/05 09:24:15;;;;;;;9.20;4.40;;;;;;;23.28;47.17;100540.31;5073339;28;20063;-64
2023/06/05 09:26:52;;;;;;;7.70;4.30;;;;;;;23.28;47.12;100533.00;5073061;28;20041;-64
2023/06/05 09:29:27;;;;;;;10.82;4.30;;;;;;;23.30;47.27;100533.69;5072917;28;20076;-66
2023/06/05 09:31:57;;;;;;;10.82;4.57;;;;;;;23.31;47.18;100526.38;5072293;28;20569;-72
2023/06/05 09:34:27;;;;;;;10.23;4.45;;;;;;;23.32;47.05;100528.91;5072709;28;20040;-70
2023/06/05 09:36:57;;;;;;;7.95;4.30;;;;;;;23.33;47.48;100530.63;5072946;28;20056;-67
2023/06/05 09:39:26;;;;;;;11.88;4.85;;;;;;;23.34;47.09;100537.75;5073014;28;20048;-68
2023/06/05 09:41:55;;;;;;;9.07;4.10;;;;;;;23.36;46.99;100534.91;5072765;28;20045;-66
2023/06/05 09:44:26;;;;;;;8.30;4.43;;;;;;;23.37;46.96;100542.03;5072808;28;20099;-65
2023/06/05 09:46:56;;;;;;;8.75;4.28;;;;;;;23.39;46.83;100540.84;5072481;28;20071;-69
2023/06/05 09:49:30;;;;;;;9.07;4.03;;;;;;;23.40;46.78;100539.81;5072661;28;20543;-70
2023/06/05 09:51:59;;;;;;;8.95;4.05;;;;;;;23.43;46.79;100538.63;5072284;28;20049;-73
2023/06/05 09:54:29;;;;;;;9.07;4.22;;;;;;;23.43;46.78;100542.19;5072519;28;20048;-69
2023/06/05 09:56:59;;;;;;;7.55;3.97;;;;;;;23.46;46.71;100540.19;5072853;28;20050;-65
2023/06/05 09:59:33;;;;;;;10.80;4.45;;;;;;;23.47;46.76;100539.16;5072565;28;20044;-66
2023/06/05 10:02:04;;;;;;;7.30;3.97;;;;;;;23.49;46.69;100528.94;5072573;28;20052;-68
2023/06/05 10:04:43;;;;;;;9.25;4.13;;;;;;;23.50;46.82;100526.06;5081125;28;20040;-65
2023/06/05 10:07:12;;;;;;;9.52;4.00;;;;;;;23.52;46.77;100523.16;5091967;28;20454;-66
2023/06/05 10:09:41;;;;;;;8.65;4.25;;;;;;;23.54;46.56;100526.56;5091935;28;20084;-67
2023/06/05 10:12:10;;;;;;;10.50;3.70;;;;;;;23.55;46.52;100514.66;5092554;28;20496;-66
2023/06/05 10:14:42;;;;;;;9.35;4.05;;;;;;;23.57;46.42;100520.78;5092807;28;20131;-65
2023/06/05 10:17:12;;;;;;;6.97;3.75;;;;;;;23.59;46.18;100508.72;5092244;28;20074;-67
2023/06/05 10:19:43;;;;;;;7.95;3.85;;;;;;;23.61;46.05;100501.25;5092337;28;20054;-66
2023/06/05 10:22:11;;;;;;;10.02;4.00;;;;;;;23.64;46.16;100510.94;5092442;28;20140;-68
2023/06/05 10:24:44;;;;;;;7.70;3.65;;;;;;;23.66;46.09;100506.19;5092144;28;20429;-64
2023/06/05 10:27:37;;;;;;;6.47;3.90;;;;;;;23.69;46.06;100494.94;5092181;28;20052;-65
2023/06/05 10:30:38;;;;;;;7.55;4.07;;;;;;;23.74;46.03;100495.31;5092048;28;20058;-66
2023/06/05 10:33:22;;;;;;;7.50;3.75;;;;;;;23.74;46.15;100495.31;5092074;28;20044;-69
2023/06/05 10:36:00;;;;;;;7.45;3.65;;;;;;;23.77;46.28;100494.09;5091798;28;20484;-66
2023/06/05 10:38:30;;;;;;;6.78;3.83;;;;;;;23.81;45.96;100492.72;5091282;28;20046;-65
2023/06/05 10:41:01;;;;;;;7.20;3.90;;;;;;;23.83;45.45;100486.06;5091833;28;20043;-66
2023/06/05 10:43:32;;;;;;;6.85;3.22;;;;;;;23.85;44.79;100486.78;5093241;28;20404;-67
2023/06/05 10:46:02;;;;;;;7.43;3.35;;;;;;;23.87;44.93;100492.88;5097237;28;20497;-70
2023/06/05 10:49:08;;;;;;;9.02;4.38;;;;;;;23.90;45.19;100481.63;5090907;28;20044;-66
2023/06/05 10:51:39;;;;;;;6.07;3.78;;;;;;;23.91;44.98;100475.16;5090369;28;20050;-67
2023/06/05 10:54:09;;;;;;;7.80;3.70;;;;;;;23.93;44.86;100485.88;5090720;28;20097;-66
2023/06/05 10:56:58;;;;;;;8.90;3.60;;;;;;;23.96;44.33;100483.69;5090600;28;20473;-64
2023/06/05 10:59:28;;;;;;;8.70;3.15;;;;;;;23.97;44.08;100487.25;5091425;28;20131;-66
2023/06/05 11:02:24;;;;;;;8.10;3.70;;;;;;;24.02;44.65;100481.28;5091207;28;20042;-66
2023/06/05 11:05:13;;;;;;;5.93;3.38;;;;;;;24.04;44.57;100488.28;5090996;28;20502;-67
2023/06/05 11:07:45;;;;;;;8.43;3.72;;;;;;;24.07;44.15;100479.75;5089606;28;20109;-67
2023/06/05 11:10:20;;;;;;;9.17;3.50;;;;;;;24.10;43.86;100484.81;5088800;28;20467;-67
2023/06/05 11:12:58;;;;;;;6.80;3.55;;;;;;;24.13;43.92;100476.31;5088236;28;20518;-66
2023/06/05 11:15:54;;;;;;;6.00;3.47;;;;;;;24.16;43.02;100472.38;5091305;28;20415;-66
2023/06/05 11:18:34;;;;;;;8.40;3.13;;;;;;;24.19;42.59;100467.44;5090029;28;20048;-67
2023/06/05 11:21:03;;;;;;;5.88;3.13;;;;;;;24.20;42.06;100469.13;5088915;28;20512;-65
2023/06/05 11:23:31;;;;;;;6.25;3.05;;;;;;;24.23;42.16;100473.41;5091091;28;20044;-66
2023/06/05 11:26:40;;;;;;;7.07;3.10;;;;;;;24.26;42.29;100467.59;5088560;28;20147;-66
2023/06/05 11:29:16;;;;;;;6.93;3.35;;;;;;;24.28;42.55;100470.97;5090011;28;20094;-66
2023/06/05 11:31:45;;;;;;;6.63;3.40;;;;;;;24.31;42.71;100465.19;5089838;28;20097;-65
2023/06/05 11:34:16;;;;;;;5.60;3.03;;;;;;;24.33;42.97;100463.19;5091772;28;20052;-65
2023/06/05 11:36:44;;;;;;;4.93;3.03;;;;;;;24.37;43.04;100459.06;5091242;28;20051;-65
2023/06/05 11:39:13;;;;;;;6.32;3.38;;;;;;;24.40;42.80;100457.84;5091450;28;20131;-66